Amunt
Inicio > meteoXarxa
Fes-te'n soci

METEOXARXA

Sta. Magdalena de Polpís
Ubicació
Comarca el Baix Maestrat
Altitud (msnm) 123
Posició geogràfica 40° 21' 21.24" N, 00° 18' 8.64" E
Model Hellmann 200
Presa de dades
Font de les dades Ximo Vives
Estadístiques. Resum
Data Temperatura (ºC) Humitat (%) Pressió (hPa) Vent (km/h) Precipit. (mm)
Mínima Mitjana Màxima Mínima Mitjana Màxima Mínima Mitjana Màxima Predom. Mitjana Ràfega màxima Total Dies de pluja
Mínima Mitjana Màxima Mínima Mitjana Màxima
Últimes dades diàries
24-03-2017 5,7     9,9     14,1 NE 2,7 24,1 0,0  
23-03-2017 6,6     10,9     16,3 SE 3,2 27,4 0,0  
22-03-2017 7,6     13,7     18,8 ONO 3,1 24,1 0,0  
21-03-2017 7,5     13,3     19,4 ONO 2,1 19,3 0,0  
20-03-2017 7,2     13,9     22,2 ONO 2,1 24,1 0,0  
19-03-2017 4,9     13,4     22,1 ONO 1,4 19,3 0,0  
18-03-2017 2,1     12,9     23,6 ONO 1,6 16,1 0,0  
17-03-2017 3,1     11,6     20,4 ONO 2,6 24,1 0,0  
16-03-2017 4,8     12,9     21,1 ONO 1,6 19,3 0,0  
15-03-2017 6,4     12,9     19,4 ONO 2,1 20,9 0,0  
14-03-2017 9,5     14,4     20,7 E 3,2 29,0 0,0  
13-03-2017 8,6     12,2     15,9 E 5,8 43,5 8,2  
12-03-2017 8,5     14,9     22,6 NO 6,8 54,7 1,2  
11-03-2017 7,4     13,7     20,3 NE 1,6 19,3 0,0  
10-03-2017 9,0     16,1     23,8 NE 2,4 20,9 0,0  
09-03-2017 7,6     16,9     27,2 ONO 1,0 16,1 0,0  
08-03-2017 11,1     16,8     21,1 ONO 6,8 53,1 0,0  
07-03-2017 11,5     18,1     22,8 NO 10,5 48,3 0,0  
06-03-2017 8,6     16,6     23,9 NO 6,0 53,1 0,0  
05-03-2017 4,8     12,3     19,1 ONO 1,6 16,1 0,0  
04-03-2017 5,8     11,3     16,5 ONO 6,4 38,6 0,5  
03-03-2017 5,2     11,0     15,4 ONO 2,7 32,2 13,3  
02-03-2017 5,1     11,7     19,1 ONO 2,1 22,5 0,0  
01-03-2017 6,9     12,3     17,4 ONO 4,5 25,7 0,0  
28-02-2017 6,3     12,0     17,2 ONO 3,1 38,6 0,0  
27-02-2017 6,6     11,8     17,7 ONO 1,6 24,1 0,0  
26-02-2017 5,2     11,0     15,8 ONO 2,4 22,5 0,0  
25-02-2017 5,1     10,5     15,3 SE 2,9 24,1 0,0  
24-02-2017 10,3     12,6     16,6 E 2,1 29,0 7,8  
23-02-2017 8,9     13,0     21,9 ONO 1,1 19,3 0,0  
22-02-2017 4,7     11,6     20,4 ONO 1,0 12,9 0,0  
21-02-2017 2,7     10,3     19,7 ONO 1,3 19,3 0,0  
Dades del mes en curs (actualitzades fins l'últim dia disponible)
03/2017 2,1 6,9 11,5 13,5 14,1 20,1 27,2   3,5 54,7 23,2  
Últimes dades mensuals
02/2017 2,6 6,9 12,6 11,6 12,5 16,9 21,9 4,8 91,7 20,8 4
01/2017 -0,4 4,6 10,4 9,1 7,9 13,9 20,1 5,0 61,2 161,7 7
12/2016 -0,6 6,1 13,7 10,3 10,6 16,1 19,2 2,2 46,7 123,5 7
11/2016 3,6 9,1 14,9 13,6 13,0 18,6 25,3 3,2 53,1 84,4 9
10/2016 9,7 14,3 18,2 18,5 17,8 23,5 27,7 1,7 35,4 27,9 13
09/2016 11,8 17,4 23,3 22,7 24,4 28,0 36,7 3,4 48,3 24,2 4
08/2016 15,6 19,5 23,8 24,8 25,6 29,8 32,9 3,9 35,4 2,1 2
07/2016 14,8 19,5 22,5 25,3 25,7 30,3 33,9 4,7 41,8 0,4 1
06/2016 12,0 16,5 20,6 22,3 24,0 27,6 31,8 4,9 43,5 12,8 6
05/2016 8,3 12,7 16,8 17,5 15,8 22,4 27,2 5,2 64,4 36,7 10
04/2016 4,2 9,7 13,4 14,7 14,2 19,9 26,7 5,2 61,2 58,8 8
03/2016 3,5 7,6 11,0 12,3 10,4 17,2 23,4 6,6 72,4 86,3 6
02/2016 -0,7 6,0 11,8 11,6 11,4 17,6 25,8 6,3 80,5 12,0 6
Dades de l'any en curs (actualitzades fins l'últim dia disponible)
2017 -0,4 6,0 12,6 11,2 7,9 16,7 27,2   4,5 91,7 205,7  
Últimes dades anuals
2012 539,1 58
2013 584,9 69
2014 1,4 8,8 16,6 13,2 11,8 18,1 23,6 4,5 61,2 416,0 73
2015 -1,4 12,2 24,7 17,2 7,6 22,7 36,4 4,6 91,7 667,4 62
2016 -0,7 12,1 23,8 17,1 10,4 22,3 36,7 4,2 80,5 471,7 76